Alsen, ND

11:34 AM CST on March 06, 2015 (GMT -0600)
RAWS HAMPDEN ND US | Change Station
CLOSE
Current Station
Personal Weather Station
Location: Hampden, ND
Elevation: 1582 ft
Nearby Weather Stations

Elev 1582 ft 48.53 °N, 98.62 °W | Updated 36 minutes ago

Clear
Clear
22 °F
Feels Like 10 °F
N
13
Wind Variable Wind from West
Gusts 16.0 mph

Today
High -- | Low -- °F
--% Chance of Precip.
Yesterday
High -- | Low -- °F
Precip. -- in
7:06 AM 6:25 PM
Full, 99% visible
Pressure 30.04 in
Visibility 10.0 miles
Clouds Mostly Cloudy 8500 ft
Windchill 10 °F
Dew Point 14 °F
Humidity 72%
Rainfall in
Snow Depth Not available.
UV 2 out of 12
Pollen .10 out of 12
Air Quality Not available.
Flu Activity Not available.
METAR K9D7 061715Z AUTO 28008KT 10SM BKN085 M03/M08 A3004 RMK AO2

More Conditions Fewer Conditions

Pressure 30.04 in
Visibility 10.0 miles
Clouds Mostly Cloudy 8500 ft
Windchill 10 °F
Dew Point 14 °F
Humidity 72%
Rainfall in
Snow Depth Not available.
UV 2 out of 12
Pollen .10 out of 12
Air Quality Not available.
Flu Activity Not available.
METAR K9D7 061715Z AUTO 28008KT 10SM BKN085 M03/M08 A3004 RMK AO2

More Conditions Fewer Conditions

10-Day Weather Forecast

Almanac

Astronomy

Mar. 06, 2015 Rise Set
Actual Time
Civil Twilight
Nautical Twilight
Astronomical Twilight
Moon
Length of Visible Light
Length of Day
Tomorrow will be .
, % of the Moon is Illuminated

Today's Extremes

State Highs State Lows

Community

WunderPhotos

Upload Photos

1,803,345 photos uploaded!

WunderBlogs® & News

Nearby

Air Quality

  Air Quality AQ Index Pollutant
Not available.

Snow Depth

Station Depth Elevation

Earthquake Activity

City Distance Mag. Time & Date
Minimum magnitude displayed is 2.5.

Coastal Water Temperatures

Place Temperature

Nearby Weather Stations